Time;durP1;ratioP1;P1;durP2;ratioP2;P2;SDS_P1;SDS_P2;PMS_P1;PMS_P2;Temp;Humidity;BMP_temperature;BMP_pressure;BME280_temperature;BME280_humidity;BME280_pressure;Samples;Min_cycle;Max_cycle;Signal;HPM_P1;HPM_P2
2023/12/21 00:01:35;;;;;;;1.08;0.60;;;;;;;;;;5088356;28;20044;-70
2023/12/21 00:04:03;;;;;;;1.38;0.57;;;;;;;;;;5088720;28;20463;-69
2023/12/21 00:06:31;;;;;;;3.25;0.85;;;;;;;;;;5088316;28;20040;-70
2023/12/21 00:08:57;;;;;;;2.75;0.60;;;;;;;;;;5088331;28;20051;-69
2023/12/21 00:11:24;;;;;;;1.35;0.45;;;;;;;;;;5088554;28;20051;-69
2023/12/21 00:13:51;;;;;;;2.17;0.70;;;;;;;;;;5087268;28;20052;-69
2023/12/21 00:16:18;;;;;;;2.28;0.63;;;;;;;;;;5088308;28;20048;-69
2023/12/21 00:18:44;;;;;;;1.58;0.52;;;;;;;;;;5088067;28;20850;-71
2023/12/21 00:21:11;;;;;;;2.20;0.68;;;;;;;;;;5088478;28;20130;-69
2023/12/21 00:23:38;;;;;;;2.15;0.63;;;;;;;;;;5088459;28;20040;-69
2023/12/21 00:26:05;;;;;;;3.13;0.60;;;;;;;;;;5087916;28;20511;-69
2023/12/21 00:28:31;;;;;;;1.10;0.50;;;;;;;;;;5088319;28;20076;-69
2023/12/21 00:30:58;;;;;;;2.65;0.70;;;;;;;;;;5088502;28;20079;-70
2023/12/21 00:33:25;;;;;;;2.47;0.68;;;;;;;;;;5088357;28;20051;-69
2023/12/21 00:35:53;;;;;;;1.60;0.70;;;;;;;;;;5088008;28;20545;-69
2023/12/21 00:38:19;;;;;;;2.47;0.70;;;;;;;;;;5087892;28;20407;-69
2023/12/21 00:40:46;;;;;;;1.55;0.70;;;;;;;;;;5087845;28;20050;-70
2023/12/21 00:43:13;;;;;;;1.27;0.50;;;;;;;;;;5088055;28;20395;-69
2023/12/21 00:45:39;;;;;;;1.98;0.70;;;;;;;;;;5088078;28;20105;-69
2023/12/21 00:48:06;;;;;;;3.95;0.60;;;;;;;;;;5088136;28;20050;-69
2023/12/21 00:50:36;;;;;;;1.35;0.70;;;;;;;;;;5087963;28;20070;-70
2023/12/21 00:53:06;;;;;;;1.70;0.70;;;;;;;;;;5087981;28;20067;-69
2023/12/21 00:55:32;;;;;;;0.57;0.40;;;;;;;;;;5087199;28;20176;-69
2023/12/21 00:58:03;;;;;;;0.97;0.50;;;;;;;;;;5086982;28;20044;-70
2023/12/21 01:00:32;;;;;;;1.75;0.55;;;;;;;;;;5087752;28;20774;-70
2023/12/21 01:02:59;;;;;;;1.38;0.50;;;;;;;;;;5087864;28;20054;-69
2023/12/21 01:05:26;;;;;;;1.52;0.40;;;;;;;;;;5088259;28;20040;-69
2023/12/21 01:07:53;;;;;;;1.67;0.70;;;;;;;;;;5088125;28;20055;-69
2023/12/21 01:10:19;;;;;;;3.05;1.13;;;;;;;;;;5088045;28;20051;-71
2023/12/21 01:12:46;;;;;;;0.32;0.28;;;;;;;;;;5088668;28;20044;-70
2023/12/21 01:15:13;;;;;;;1.40;0.50;;;;;;;;;;5088991;28;20040;-70
2023/12/21 01:17:40;;;;;;;2.00;0.88;;;;;;;;;;5089240;28;20052;-69
2023/12/21 01:20:07;;;;;;;1.20;0.65;;;;;;;;;;5091525;28;20083;-69
2023/12/21 01:22:34;;;;;;;1.67;0.73;;;;;;;;;;5092964;28;20048;-69
2023/12/21 01:25:01;;;;;;;1.42;0.65;;;;;;;;;;5092342;28;20504;-69
2023/12/21 01:27:28;;;;;;;0.90;0.52;;;;;;;;;;5092791;28;20477;-69
2023/12/21 01:29:58;;;;;;;2.15;0.60;;;;;;;;;;5092736;28;20059;-69
2023/12/21 01:32:25;;;;;;;2.47;0.70;;;;;;;;;;5092417;28;20055;-71
2023/12/21 01:34:52;;;;;;;1.13;0.60;;;;;;;;;;5092805;28;20048;-69
2023/12/21 01:37:19;;;;;;;1.50;0.38;;;;;;;;;;5092993;28;20071;-69
2023/12/21 01:39:46;;;;;;;1.65;0.50;;;;;;;;;;5092433;28;20071;-69
2023/12/21 01:42:12;;;;;;;2.00;0.50;;;;;;;;;;5092617;28;20418;-69
2023/12/21 01:44:39;;;;;;;2.35;0.70;;;;;;;;;;5092568;28;20050;-71
2023/12/21 01:47:06;;;;;;;1.42;0.50;;;;;;;;;;5096449;28;20051;-69
2023/12/21 01:49:33;;;;;;;4.20;0.80;;;;;;;;;;5104040;28;20048;-69
2023/12/21 01:52:00;;;;;;;2.42;0.77;;;;;;;;;;5101580;28;20050;-69
2023/12/21 01:54:27;;;;;;;1.65;0.50;;;;;;;;;;5102211;28;20324;-69
2023/12/21 01:56:53;;;;;;;0.98;0.43;;;;;;;;;;5103191;28;20324;-70
2023/12/21 01:59:20;;;;;;;1.55;0.35;;;;;;;;;;5100352;28;20350;-69
2023/12/21 02:01:47;;;;;;;0.40;0.40;;;;;;;;;;5101103;28;20317;-70
2023/12/21 02:04:14;;;;;;;2.05;0.40;;;;;;;;;;5102859;28;20051;-69
2023/12/21 02:06:42;;;;;;;1.33;0.45;;;;;;;;;;5095796;28;20105;-69
2023/12/21 02:09:09;;;;;;;1.38;0.40;;;;;;;;;;5102895;28;20083;-71
2023/12/21 02:11:35;;;;;;;1.08;0.40;;;;;;;;;;5103478;28;20241;-69
2023/12/21 02:14:02;;;;;;;1.10;0.77;;;;;;;;;;5103722;28;20044;-72
2023/12/21 02:16:38;;;;;;;2.20;0.40;;;;;;;;;;5103452;28;20339;-69
2023/12/21 02:19:06;;;;;;;0.85;0.40;;;;;;;;;;5103662;28;20048;-69
2023/12/21 02:21:35;;;;;;;2.35;0.40;;;;;;;;;;5102644;28;20036;-71
2023/12/21 02:24:03;;;;;;;0.80;0.40;;;;;;;;;;5103164;28;20071;-71
2023/12/21 02:26:30;;;;;;;0.68;0.20;;;;;;;;;;5102709;28;20055;-70
2023/12/21 02:28:57;;;;;;;1.65;0.40;;;;;;;;;;5102980;28;20062;-71
2023/12/21 02:31:23;;;;;;;1.67;0.55;;;;;;;;;;5101325;28;20076;-69
2023/12/21 02:33:50;;;;;;;1.27;0.28;;;;;;;;;;5101789;28;20097;-70
2023/12/21 02:36:17;;;;;;;2.42;0.30;;;;;;;;;;5101580;28;20113;-70
2023/12/21 02:38:44;;;;;;;1.30;0.20;;;;;;;;;;5101438;28;20052;-71
2023/12/21 02:41:10;;;;;;;2.28;0.60;;;;;;;;;;5102132;28;20094;-71
2023/12/21 02:43:37;;;;;;;0.90;0.38;;;;;;;;;;5102973;28;20052;-71
2023/12/21 02:46:04;;;;;;;0.47;0.22;;;;;;;;;;5102925;28;20082;-69
2023/12/21 02:48:30;;;;;;;0.88;0.38;;;;;;;;;;5103001;28;20051;-70
2023/12/21 02:51:00;;;;;;;0.88;0.38;;;;;;;;;;5102269;28;20075;-73
2023/12/21 02:53:26;;;;;;;0.73;0.20;;;;;;;;;;5102561;28;20044;-72
2023/12/21 02:55:53;;;;;;;2.28;0.45;;;;;;;;;;5102478;28;20081;-71
2023/12/21 02:58:20;;;;;;;1.80;0.30;;;;;;;;;;5102743;28;20058;-71
2023/12/21 03:00:46;;;;;;;1.55;0.38;;;;;;;;;;5102643;28;20229;-71
2023/12/21 03:03:13;;;;;;;0.98;0.47;;;;;;;;;;5102585;28;20051;-74
2023/12/21 03:05:42;;;;;;;1.55;0.35;;;;;;;;;;5102708;28;20044;-72
2023/12/21 03:08:09;;;;;;;1.20;0.43;;;;;;;;;;5102584;28;20066;-73
2023/12/21 03:10:38;;;;;;;0.88;0.43;;;;;;;;;;5102231;28;20082;-69
2023/12/21 03:13:05;;;;;;;1.17;0.40;;;;;;;;;;5101934;28;20252;-71
2023/12/21 03:15:31;;;;;;;2.60;0.50;;;;;;;;;;5100440;28;20036;-72
2023/12/21 03:17:58;;;;;;;3.55;0.63;;;;;;;;;;5101097;28;20115;-73
2023/12/21 03:20:25;;;;;;;1.80;0.30;;;;;;;;;;5100847;28;20052;-74
2023/12/21 03:22:52;;;;;;;0.28;0.13;;;;;;;;;;5100925;28;20044;-73
2023/12/21 03:25:18;;;;;;;1.73;0.82;;;;;;;;;;5100500;28;20054;-75
2023/12/21 03:27:47;;;;;;;2.33;0.30;;;;;;;;;;5101833;28;20043;-74
2023/12/21 03:30:14;;;;;;;2.45;0.30;;;;;;;;;;5101973;28;20044;-71
2023/12/21 03:32:42;;;;;;;2.33;0.50;;;;;;;;;;5102071;28;20044;-68
2023/12/21 03:35:15;;;;;;;2.78;0.28;;;;;;;;;;5102102;28;20206;-71
2023/12/21 03:37:45;;;;;;;1.75;0.38;;;;;;;;;;5102116;28;20048;-71
2023/12/21 03:40:15;;;;;;;2.80;0.30;;;;;;;;;;5101340;28;20048;-71
2023/12/21 03:42:42;;;;;;;0.60;0.20;;;;;;;;;;5100248;28;20048;-72
2023/12/21 03:45:12;;;;;;;1.17;0.27;;;;;;;;;;5079463;28;20291;-72
2023/12/21 03:47:38;;;;;;;1.30;0.38;;;;;;;;;;5098114;28;20324;-75
2023/12/21 03:50:06;;;;;;;2.60;0.40;;;;;;;;;;5098937;28;20273;-74
2023/12/21 03:52:32;;;;;;;1.38;0.30;;;;;;;;;;5100110;28;20055;-72
2023/12/21 03:54:59;;;;;;;1.80;0.30;;;;;;;;;;5100408;28;20085;-71
2023/12/21 03:57:26;;;;;;;1.63;0.52;;;;;;;;;;5099863;28;20097;-69
2023/12/21 03:59:52;;;;;;;3.63;0.43;;;;;;;;;;5100777;28;20124;-74
2023/12/21 04:02:19;;;;;;;1.08;0.40;;;;;;;;;;5101461;28;20247;-71
2023/12/21 04:04:46;;;;;;;1.00;0.40;;;;;;;;;;5101538;28;20082;-71
2023/12/21 04:07:12;;;;;;;1.15;0.30;;;;;;;;;;5101448;28;20044;-70
2023/12/21 04:09:41;;;;;;;0.90;0.20;;;;;;;;;;5101148;28;20075;-70
2023/12/21 04:12:08;;;;;;;0.65;0.20;;;;;;;;;;5101210;28;20132;-71
2023/12/21 04:14:35;;;;;;;0.38;0.10;;;;;;;;;;5100938;28;20332;-70
2023/12/21 04:17:04;;;;;;;0.10;0.10;;;;;;;;;;5101125;28;20112;-71
2023/12/21 04:19:31;;;;;;;0.45;0.17;;;;;;;;;;5100144;28;20362;-72
2023/12/21 04:21:58;;;;;;;0.43;0.20;;;;;;;;;;5099718;28;20390;-70
2023/12/21 04:24:24;;;;;;;2.20;0.40;;;;;;;;;;5099688;28;20040;-71
2023/12/21 04:26:51;;;;;;;0.38;0.20;;;;;;;;;;5099905;28;20056;-74
2023/12/21 04:29:18;;;;;;;0.20;0.13;;;;;;;;;;5099709;28;20071;-70
2023/12/21 04:31:44;;;;;;;1.13;0.30;;;;;;;;;;5099061;28;20046;-70
2023/12/21 04:34:11;;;;;;;0.93;0.40;;;;;;;;;;5100014;28;20044;-71
2023/12/21 04:36:38;;;;;;;1.27;0.50;;;;;;;;;;5097004;28;20048;-72
2023/12/21 04:39:05;;;;;;;0.98;0.30;;;;;;;;;;5100341;28;20035;-73
2023/12/21 04:41:31;;;;;;;1.83;0.50;;;;;;;;;;5099732;28;20257;-70
2023/12/21 04:43:58;;;;;;;0.65;0.20;;;;;;;;;;5097572;28;20036;-70
2023/12/21 04:46:25;;;;;;;1.35;0.25;;;;;;;;;;5099804;28;20120;-71
2023/12/21 04:48:51;;;;;;;0.60;0.20;;;;;;;;;;5099623;28;20040;-71
2023/12/21 04:51:18;;;;;;;2.47;0.30;;;;;;;;;;5096040;28;20068;-71
2023/12/21 04:53:45;;;;;;;0.40;0.20;;;;;;;;;;5102081;28;20209;-70
2023/12/21 04:56:12;;;;;;;1.85;0.38;;;;;;;;;;5106188;28;20044;-71
2023/12/21 04:58:40;;;;;;;0.30;0.30;;;;;;;;;;5104514;28;20089;-71
2023/12/21 05:01:07;;;;;;;1.13;0.30;;;;;;;;;;5107147;28;20083;-73
2023/12/21 05:03:34;;;;;;;1.58;0.20;;;;;;;;;;5107025;28;20054;-72
2023/12/21 05:06:02;;;;;;;0.45;0.20;;;;;;;;;;5107295;28;20040;-73
2023/12/21 05:08:29;;;;;;;0.55;0.10;;;;;;;;;;5107023;28;20374;-74
2023/12/21 05:10:56;;;;;;;1.50;0.43;;;;;;;;;;5106962;28;20314;-75
2023/12/21 05:13:22;;;;;;;1.80;0.20;;;;;;;;;;5107251;28;20071;-74
2023/12/21 05:15:49;;;;;;;0.68;0.20;;;;;;;;;;5106707;28;20292;-71
2023/12/21 05:18:16;;;;;;;0.52;0.20;;;;;;;;;;5106527;28;20348;-71
2023/12/21 05:20:43;;;;;;;0.30;0.10;;;;;;;;;;5105410;28;20515;-71
2023/12/21 05:23:09;;;;;;;0.73;0.45;;;;;;;;;;5106070;28;20103;-74
2023/12/21 05:25:36;;;;;;;0.88;0.38;;;;;;;;;;5105029;28;20216;-74
2023/12/21 05:28:03;;;;;;;0.85;0.30;;;;;;;;;;5105785;28;20040;-74
2023/12/21 05:30:30;;;;;;;0.52;0.40;;;;;;;;;;5106230;28;20063;-74
2023/12/21 05:32:57;;;;;;;0.70;0.20;;;;;;;;;;5106397;28;20040;-74
2023/12/21 05:35:25;;;;;;;0.25;0.15;;;;;;;;;;5106575;28;20080;-74
2023/12/21 05:37:51;;;;;;;0.22;0.20;;;;;;;;;;5106849;28;20040;-74
2023/12/21 05:40:19;;;;;;;1.45;0.20;;;;;;;;;;5103740;28;20070;-74
2023/12/21 05:42:46;;;;;;;0.43;0.10;;;;;;;;;;5107015;28;20040;-74
2023/12/21 05:45:13;;;;;;;0.90;0.30;;;;;;;;;;5106523;28;20078;-75
2023/12/21 05:47:40;;;;;;;0.35;0.15;;;;;;;;;;5106604;28;20102;-74
2023/12/21 05:50:08;;;;;;;0.32;0.15;;;;;;;;;;5095887;28;20055;-72
2023/12/21 05:52:34;;;;;;;0.17;0.10;;;;;;;;;;5105992;28;20040;-74
2023/12/21 05:55:02;;;;;;;1.10;0.22;;;;;;;;;;5106428;28;20047;-75
2023/12/21 05:57:29;;;;;;;0.50;0.13;;;;;;;;;;5106202;28;20044;-72
2023/12/21 05:59:55;;;;;;;0.10;0.10;;;;;;;;;;5106102;28;20048;-72
2023/12/21 06:02:22;;;;;;;0.65;0.22;;;;;;;;;;5106372;28;20116;-73
2023/12/21 06:04:50;;;;;;;0.20;0.20;;;;;;;;;;5104548;28;20044;-74
2023/12/21 06:07:17;;;;;;;0.20;0.20;;;;;;;;;;5103624;28;20222;-74
2023/12/21 06:09:43;;;;;;;0.40;0.20;;;;;;;;;;5103662;28;20057;-75
2023/12/21 06:12:10;;;;;;;0.90;0.25;;;;;;;;;;5103806;28;20044;-73
2023/12/21 06:14:37;;;;;;;1.00;0.30;;;;;;;;;;5103373;28;20236;-75
2023/12/21 06:17:03;;;;;;;0.40;0.15;;;;;;;;;;5102676;28;20058;-74
2023/12/21 06:19:30;;;;;;;0.60;0.30;;;;;;;;;;5103336;28;20316;-72
2023/12/21 06:21:57;;;;;;;0.73;0.25;;;;;;;;;;5103551;28;20044;-75
2023/12/21 06:24:23;;;;;;;0.68;0.22;;;;;;;;;;5103657;28;20048;-73
2023/12/21 06:26:50;;;;;;;1.45;0.28;;;;;;;;;;5103179;28;20274;-72
2023/12/21 06:29:17;;;;;;;0.70;0.10;;;;;;;;;;5103161;28;20090;-74
2023/12/21 06:31:44;;;;;;;1.10;0.20;;;;;;;;;;5103468;28;20111;-74
2023/12/21 06:34:10;;;;;;;0.35;0.20;;;;;;;;;;5103041;28;20228;-71
2023/12/21 06:36:37;;;;;;;0.40;0.20;;;;;;;;;;5102795;28;20048;-74
2023/12/21 06:39:04;;;;;;;0.70;0.15;;;;;;;;;;5102246;28;20050;-72
2023/12/21 06:41:31;;;;;;;0.85;0.30;;;;;;;;;;5101988;28;20048;-73
2023/12/21 06:43:57;;;;;;;0.25;0.15;;;;;;;;;;5102735;28;20331;-75
2023/12/21 06:46:24;;;;;;;0.20;0.15;;;;;;;;;;5102922;28;20266;-75
2023/12/21 06:48:51;;;;;;;1.33;0.30;;;;;;;;;;5103006;28;20107;-71
2023/12/21 06:51:18;;;;;;;0.22;0.13;;;;;;;;;;5103078;28;20040;-71
2023/12/21 06:53:44;;;;;;;0.38;0.20;;;;;;;;;;5102789;28;20048;-71
2023/12/21 06:56:11;;;;;;;0.98;0.32;;;;;;;;;;5102789;28;20237;-71
2023/12/21 06:58:58;;;;;;;2.35;0.43;;;;;;;;;;5102224;28;20044;-71
2023/12/21 07:01:25;;;;;;;0.65;0.25;;;;;;;;;;5102964;28;20072;-72
2023/12/21 07:03:54;;;;;;;0.63;0.30;;;;;;;;;;5102695;28;20085;-71
2023/12/21 07:06:21;;;;;;;0.80;0.40;;;;;;;;;;5101919;28;20363;-72
2023/12/21 07:08:48;;;;;;;1.55;0.25;;;;;;;;;;5101688;28;20047;-71
2023/12/21 07:11:15;;;;;;;0.63;0.28;;;;;;;;;;5102453;28;20056;-71
2023/12/21 07:13:41;;;;;;;1.58;0.30;;;;;;;;;;5102637;28;20047;-71
2023/12/21 07:16:10;;;;;;;0.55;0.32;;;;;;;;;;5102181;28;20044;-72
2023/12/21 07:18:37;;;;;;;0.40;0.20;;;;;;;;;;5102311;28;20271;-71
2023/12/21 07:21:05;;;;;;;0.70;0.38;;;;;;;;;;5102495;28;20051;-71
2023/12/21 07:23:31;;;;;;;0.30;0.30;;;;;;;;;;5101757;28;20044;-71
2023/12/21 07:25:58;;;;;;;1.50;0.32;;;;;;;;;;5101960;28;20116;-71
2023/12/21 07:28:28;;;;;;;0.30;0.20;;;;;;;;;;5101381;28;20052;-71
2023/12/21 07:30:55;;;;;;;0.45;0.30;;;;;;;;;;5101402;28;20437;-73
2023/12/21 07:33:22;;;;;;;0.57;0.20;;;;;;;;;;5101326;28;20044;-73
2023/12/21 07:35:50;;;;;;;0.75;0.22;;;;;;;;;;5101407;28;20048;-72
2023/12/21 07:38:16;;;;;;;0.85;0.30;;;;;;;;;;5091701;28;20115;-71
2023/12/21 07:40:44;;;;;;;0.80;0.50;;;;;;;;;;5089994;28;20052;-72
2023/12/21 07:43:11;;;;;;;0.57;0.35;;;;;;;;;;5095357;28;20336;-72
2023/12/21 07:45:38;;;;;;;1.25;0.60;;;;;;;;;;5101834;28;20078;-71
2023/12/21 07:48:05;;;;;;;1.90;0.40;;;;;;;;;;5082283;28;20098;-72
2023/12/21 07:50:32;;;;;;;0.68;0.40;;;;;;;;;;5080586;28;20143;-71
2023/12/21 07:52:58;;;;;;;0.32;0.30;;;;;;;;;;5080518;28;20056;-71
2023/12/21 07:55:25;;;;;;;0.90;0.30;;;;;;;;;;5089452;28;20044;-72
2023/12/21 07:57:52;;;;;;;0.93;0.52;;;;;;;;;;5100451;28;20111;-72
2023/12/21 08:00:19;;;;;;;2.25;0.60;;;;;;;;;;5100011;28;20048;-71
2023/12/21 08:02:46;;;;;;;1.17;0.40;;;;;;;;;;5100663;28;20040;-72
2023/12/21 08:05:14;;;;;;;0.80;0.50;;;;;;;;;;5099520;28;20047;-72
2023/12/21 08:07:41;;;;;;;0.55;0.32;;;;;;;;;;5100027;28;20111;-75
2023/12/21 08:10:09;;;;;;;0.63;0.40;;;;;;;;;;5099793;28;20320;-72
2023/12/21 08:12:36;;;;;;;0.40;0.35;;;;;;;;;;5089645;28;20296;-72
2023/12/21 08:15:03;;;;;;;1.42;0.60;;;;;;;;;;5071022;28;20127;-71
2023/12/21 08:17:30;;;;;;;0.22;0.20;;;;;;;;;;5069579;28;20044;-71
2023/12/21 08:19:57;;;;;;;1.75;0.50;;;;;;;;;;5068987;28;20587;-72
2023/12/21 08:22:24;;;;;;;0.90;0.52;;;;;;;;;;5069542;28;20046;-72
2023/12/21 08:24:51;;;;;;;1.15;0.50;;;;;;;;;;5069783;28;20120;-71
2023/12/21 08:27:19;;;;;;;1.50;0.40;;;;;;;;;;5069020;28;20053;-72
2023/12/21 08:29:46;;;;;;;3.67;0.50;;;;;;;;;;5051132;28;20040;-71
2023/12/21 08:32:13;;;;;;;0.73;0.40;;;;;;;;;;5069092;28;20051;-72
2023/12/21 08:34:40;;;;;;;1.65;0.47;;;;;;;;;;5068794;28;20424;-73
2023/12/21 08:37:07;;;;;;;0.85;0.40;;;;;;;;;;5069201;28;20412;-74
2023/12/21 08:39:34;;;;;;;0.50;0.30;;;;;;;;;;5082983;28;20043;-74
2023/12/21 08:42:02;;;;;;;1.05;0.47;;;;;;;;;;5090562;28;20048;-72
2023/12/21 08:44:29;;;;;;;0.57;0.38;;;;;;;;;;5089319;28;20101;-74
2023/12/21 08:46:59;;;;;;;;;;;;;;;;;;5077046;28;20551;-74
2023/12/21 08:49:26;;;;;;;1.80;0.40;;;;;;;;;;5073884;28;20390;-74
2023/12/21 08:51:53;;;;;;;1.33;0.40;;;;;;;;;;5075256;28;20106;-72
2023/12/21 08:54:21;;;;;;;0.57;0.30;;;;;;;;;;5078872;28;20052;-72
2023/12/21 08:56:50;;;;;;;0.88;0.30;;;;;;;;;;5079138;28;20116;-74
2023/12/21 08:59:18;;;;;;;1.30;0.65;;;;;;;;;;5080122;28;20238;-75
2023/12/21 09:01:46;;;;;;;2.03;0.80;;;;;;;;;;5099822;28;20039;-74
2023/12/21 09:04:13;;;;;;;1.05;0.60;;;;;;;;;;5099040;28;20043;-73
2023/12/21 09:06:40;;;;;;;2.38;0.43;;;;;;;;;;5089960;28;20127;-75
2023/12/21 09:09:07;;;;;;;1.00;0.50;;;;;;;;;;5099032;28;20040;-75
2023/12/21 09:11:33;;;;;;;2.50;0.60;;;;;;;;;;5090207;28;20040;-73
2023/12/21 09:14:00;;;;;;;0.82;0.40;;;;;;;;;;5087997;28;20101;-76
2023/12/21 09:16:29;;;;;;;2.47;0.50;;;;;;;;;;5088219;28;20046;-72
2023/12/21 09:18:57;;;;;;;0.47;0.30;;;;;;;;;;5085792;28;20048;-73
2023/12/21 09:21:24;;;;;;;3.70;0.80;;;;;;;;;;5086856;28;20044;-72
2023/12/21 09:23:51;;;;;;;1.00;0.40;;;;;;;;;;5086208;28;20044;-73
2023/12/21 09:26:17;;;;;;;0.65;0.30;;;;;;;;;;5085921;28;20075;-72
2023/12/21 09:28:45;;;;;;;0.55;0.38;;;;;;;;;;5086003;28;20509;-72
2023/12/21 09:31:11;;;;;;;0.95;0.50;;;;;;;;;;5086729;28;20131;-72
2023/12/21 09:33:40;;;;;;;1.27;0.50;;;;;;;;;;5077201;28;20048;-72
2023/12/21 09:36:09;;;;;;;1.08;0.50;;;;;;;;;;5087047;28;20611;-71
2023/12/21 09:38:36;;;;;;;1.48;0.40;;;;;;;;;;5086878;28;20640;-71
2023/12/21 09:41:03;;;;;;;1.65;0.60;;;;;;;;;;5090533;28;20059;-72
2023/12/21 09:43:31;;;;;;;2.00;0.40;;;;;;;;;;5092271;28;20427;-72
2023/12/21 09:45:59;;;;;;;2.35;0.52;;;;;;;;;;5091430;28;20056;-73
2023/12/21 09:48:27;;;;;;;2.60;0.43;;;;;;;;;;5092443;28;20044;-73
2023/12/21 09:50:55;;;;;;;1.52;0.47;;;;;;;;;;5092347;28;20048;-72
2023/12/21 09:53:25;;;;;;;1.52;0.60;;;;;;;;;;5092359;28;20405;-71
2023/12/21 09:55:53;;;;;;;4.37;0.80;;;;;;;;;;5092298;28;20044;-73
2023/12/21 09:58:20;;;;;;;2.25;0.60;;;;;;;;;;5092270;28;20282;-73
2023/12/21 10:00:47;;;;;;;3.05;0.60;;;;;;;;;;5092089;28;20048;-73
2023/12/21 10:03:14;;;;;;;2.33;0.75;;;;;;;;;;5092160;28;20048;-72
2023/12/21 10:05:41;;;;;;;1.35;0.47;;;;;;;;;;5089815;28;20552;-73
2023/12/21 10:08:09;;;;;;;1.20;0.47;;;;;;;;;;5091344;28;20052;-73
2023/12/21 10:10:37;;;;;;;1.48;0.43;;;;;;;;;;5090131;28;20044;-72
2023/12/21 10:13:07;;;;;;;1.70;0.50;;;;;;;;;;5097240;28;20047;-73
2023/12/21 10:15:34;;;;;;;1.83;0.50;;;;;;;;;;5099042;28;20090;-73
2023/12/21 10:18:04;;;;;;;2.30;0.50;;;;;;;;;;5102779;28;20271;-71
2023/12/21 10:20:33;;;;;;;1.02;0.50;;;;;;;;;;5101683;28;20040;-73
2023/12/21 10:23:00;;;;;;;0.95;0.47;;;;;;;;;;5100573;28;20069;-72
2023/12/21 10:25:27;;;;;;;1.67;0.35;;;;;;;;;;5101457;28;20268;-72
2023/12/21 10:27:55;;;;;;;2.60;0.45;;;;;;;;;;5101628;28;20048;-72
2023/12/21 10:30:23;;;;;;;1.52;0.50;;;;;;;;;;5101998;28;20044;-77
2023/12/21 10:32:56;;;;;;;2.22;0.52;;;;;;;;;;5102024;28;20068;-77
2023/12/21 10:35:25;;;;;;;1.85;0.73;;;;;;;;;;5101841;28;20056;-72
2023/12/21 10:37:52;;;;;;;2.85;0.90;;;;;;;;;;5102084;28;20352;-73
2023/12/21 10:40:19;;;;;;;1.00;0.50;;;;;;;;;;5098011;28;20110;-73
2023/12/21 10:42:47;;;;;;;0.50;0.30;;;;;;;;;;5076280;28;20052;-73
2023/12/21 10:45:16;;;;;;;0.47;0.32;;;;;;;;;;5090430;28;20048;-71
2023/12/21 10:48:06;;;;;;;0.90;0.63;;;;;;;;;;5082635;28;20048;-74
2023/12/21 10:50:34;;;;;;;1.00;0.50;;;;;;;;;;5082168;28;20045;-71
2023/12/21 10:53:02;;;;;;;1.05;0.57;;;;;;;;;;5082307;28;20048;-74
2023/12/21 10:55:30;;;;;;;0.20;0.20;;;;;;;;;;5082360;28;20044;-71
2023/12/21 10:58:00;;;;;;;1.48;0.50;;;;;;;;;;5093117;28;20040;-72
2023/12/21 11:00:27;;;;;;;0.40;0.30;;;;;;;;;;5100827;28;20409;-71
2023/12/21 11:02:57;;;;;;;0.68;0.30;;;;;;;;;;5101670;28;20068;-71
2023/12/21 11:05:26;;;;;;;0.68;0.30;;;;;;;;;;5102093;28;20119;-71
2023/12/21 11:07:54;;;;;;;0.80;0.40;;;;;;;;;;5101818;28;20043;-73
2023/12/21 11:10:22;;;;;;;0.30;0.25;;;;;;;;;;5101263;28;20051;-73
2023/12/21 11:12:50;;;;;;;0.98;0.50;;;;;;;;;;5098811;28;20067;-71
2023/12/21 11:15:19;;;;;;;1.95;0.55;;;;;;;;;;5101353;28;20062;-72
2023/12/21 11:17:53;;;;;;;1.05;0.55;;;;;;;;;;5101630;28;20306;-73
2023/12/21 11:20:28;;;;;;;1.13;0.40;;;;;;;;;;5101999;28;20048;-72
2023/12/21 11:23:11;;;;;;;0.57;0.30;;;;;;;;;;5099229;28;20040;-74
2023/12/21 11:25:37;;;;;;;2.05;0.40;;;;;;;;;;5098405;28;20044;-70
2023/12/21 11:28:06;;;;;;;0.73;0.45;;;;;;;;;;5099114;28;20089;-71
2023/12/21 11:30:33;;;;;;;1.48;0.60;;;;;;;;;;5098343;28;20075;-70
2023/12/21 11:33:08;;;;;;;3.70;0.70;;;;;;;;;;5098342;28;20086;-71
2023/12/21 11:35:36;;;;;;;1.23;0.40;;;;;;;;;;5099355;28;20145;-72
2023/12/21 11:38:06;;;;;;;0.85;0.40;;;;;;;;;;5099868;28;20085;-73
2023/12/21 11:40:35;;;;;;;1.05;0.50;;;;;;;;;;5101094;28;20051;-75
2023/12/21 11:43:06;;;;;;;1.35;0.40;;;;;;;;;;5100810;28;20090;-74
2023/12/21 11:45:35;;;;;;;3.17;0.73;;;;;;;;;;5067252;28;20056;-81
2023/12/21 11:48:04;;;;;;;2.38;0.40;;;;;;;;;;5079039;28;20048;-83
2023/12/21 11:50:33;;;;;;;4.18;0.68;;;;;;;;;;5062206;28;20119;-85
2023/12/21 11:53:12;;;;;;;1.05;0.47;;;;;;;;;;5079983;28;20048;-82
2023/12/21 11:55:42;;;;;;;;;;;;;;;;;;5081391;28;20119;-73
2023/12/21 11:58:18;;;;;;;0.45;0.30;;;;;;;;;;5079972;28;20008;-74
2023/12/21 12:00:51;;;;;;;1.17;0.40;;;;;;;;;;5081059;28;20115;-75
2023/12/21 12:03:20;;;;;;;0.30;0.28;;;;;;;;;;5063064;28;20051;-74
2023/12/21 12:05:53;;;;;;;1.15;0.50;;;;;;;;;;5080925;28;20051;-73
2023/12/21 12:08:22;;;;;;;1.35;0.50;;;;;;;;;;5080941;28;20044;-75
2023/12/21 12:10:50;;;;;;;2.00;0.60;;;;;;;;;;5080988;28;20052;-74
2023/12/21 12:13:18;;;;;;;0.82;0.50;;;;;;;;;;5081097;28;20048;-75
2023/12/21 12:15:48;;;;;;;0.85;0.60;;;;;;;;;;5062688;28;20044;-73
2023/12/21 12:18:16;;;;;;;0.82;0.60;;;;;;;;;;5080275;28;20119;-75
2023/12/21 12:20:43;;;;;;;0.85;0.50;;;;;;;;;;5079796;28;20271;-73
2023/12/21 12:23:14;;;;;;;1.05;0.60;;;;;;;;;;5079878;28;20333;-74
2023/12/21 12:25:42;;;;;;;1.35;0.63;;;;;;;;;;5079999;28;20130;-75
2023/12/21 12:28:17;;;;;;;1.27;0.65;;;;;;;;;;5080402;28;20044;-74
2023/12/21 12:30:44;;;;;;;0.70;0.40;;;;;;;;;;5079423;28;20052;-74
2023/12/21 12:33:15;;;;;;;2.13;0.50;;;;;;;;;;5079786;28;20058;-74
2023/12/21 12:35:43;;;;;;;2.15;0.40;;;;;;;;;;5079878;28;20170;-73
2023/12/21 12:38:10;;;;;;;0.70;0.30;;;;;;;;;;5079244;28;20267;-73
2023/12/21 12:40:38;;;;;;;1.23;0.43;;;;;;;;;;5078595;28;20045;-71
2023/12/21 12:43:06;;;;;;;1.38;0.45;;;;;;;;;;5079151;28;20325;-72
2023/12/21 12:45:33;;;;;;;0.98;0.55;;;;;;;;;;5078905;28;20251;-72
2023/12/21 12:48:00;;;;;;;1.80;0.60;;;;;;;;;;5079296;28;20048;-73
2023/12/21 12:50:27;;;;;;;1.85;0.52;;;;;;;;;;5079101;28;20059;-73
2023/12/21 12:52:54;;;;;;;1.25;0.40;;;;;;;;;;5079443;28;20116;-73
2023/12/21 12:55:23;;;;;;;1.70;0.35;;;;;;;;;;5078878;28;20055;-74
2023/12/21 12:57:53;;;;;;;1.60;0.63;;;;;;;;;;5079173;28;20136;-73
2023/12/21 13:00:20;;;;;;;1.65;0.50;;;;;;;;;;5080161;28;20044;-74
2023/12/21 13:02:47;;;;;;;2.15;0.50;;;;;;;;;;5080210;28;20344;-74
2023/12/21 13:05:18;;;;;;;1.90;0.52;;;;;;;;;;5080594;28;20067;-74
2023/12/21 13:07:45;;;;;;;1.95;0.55;;;;;;;;;;5080506;28;20071;-73
2023/12/21 13:10:12;;;;;;;2.28;0.88;;;;;;;;;;5080576;28;20083;-71
2023/12/21 13:12:40;;;;;;;1.63;0.70;;;;;;;;;;5080273;28;20071;-73
2023/12/21 13:15:08;;;;;;;3.08;0.80;;;;;;;;;;5081459;28;20052;-71
2023/12/21 13:17:35;;;;;;;2.08;0.60;;;;;;;;;;5083175;28;20041;-73
2023/12/21 13:20:05;;;;;;;1.65;0.38;;;;;;;;;;5082686;28;20047;-71
2023/12/21 13:22:31;;;;;;;1.35;0.40;;;;;;;;;;5082406;28;20052;-72
2023/12/21 13:24:59;;;;;;;0.88;0.50;;;;;;;;;;5082586;28;20049;-73
2023/12/21 13:27:26;;;;;;;3.42;0.75;;;;;;;;;;5082545;28;20052;-72
2023/12/21 13:29:53;;;;;;;1.95;0.30;;;;;;;;;;5082721;28;20048;-72
2023/12/21 13:32:20;;;;;;;2.05;0.68;;;;;;;;;;5082346;28;20075;-72
2023/12/21 13:34:47;;;;;;;1.95;0.43;;;;;;;;;;5083019;28;20047;-73
2023/12/21 13:37:16;;;;;;;0.60;0.40;;;;;;;;;;5082765;28;20113;-73
2023/12/21 13:39:48;;;;;;;2.45;0.85;;;;;;;;;;5083094;28;20040;-70
2023/12/21 13:42:16;;;;;;;1.33;0.50;;;;;;;;;;5082774;28;20055;-70
2023/12/21 13:44:43;;;;;;;3.38;0.70;;;;;;;;;;5083583;28;20052;-73
2023/12/21 13:47:10;;;;;;;1.70;0.55;;;;;;;;;;5082857;28;20055;-71
2023/12/21 13:49:36;;;;;;;4.07;0.65;;;;;;;;;;5081742;28;20067;-72
2023/12/21 13:52:04;;;;;;;2.58;0.50;;;;;;;;;;5082076;28;20607;-72
2023/12/21 13:54:31;;;;;;;6.22;1.00;;;;;;;;;;5082252;28;20190;-73
2023/12/21 13:56:58;;;;;;;2.17;0.60;;;;;;;;;;5083899;28;20099;-72
2023/12/21 13:59:39;;;;;;;5.45;0.60;;;;;;;;;;5098513;28;20422;-72
2023/12/21 14:02:07;;;;;;;1.13;0.50;;;;;;;;;;5103809;28;20043;-73
2023/12/21 14:04:35;;;;;;;2.40;0.98;;;;;;;;;;5103935;28;20295;-73
2023/12/21 14:07:03;;;;;;;6.13;1.05;;;;;;;;;;5103705;28;20048;-73
2023/12/21 14:09:30;;;;;;;6.20;0.90;;;;;;;;;;5103670;28;20044;-72
2023/12/21 14:11:57;;;;;;;2.90;0.95;;;;;;;;;;5103793;28;20048;-74
2023/12/21 14:14:23;;;;;;;2.65;1.02;;;;;;;;;;5103494;28;20044;-71
2023/12/21 14:16:50;;;;;;;5.07;1.00;;;;;;;;;;5102175;28;20046;-71
2023/12/21 14:19:17;;;;;;;5.38;1.50;;;;;;;;;;5102989;28;20083;-73
2023/12/21 14:21:43;;;;;;;2.70;1.20;;;;;;;;;;5102714;28;20101;-72
2023/12/21 14:24:10;;;;;;;3.22;1.02;;;;;;;;;;5102498;28;20052;-72
2023/12/21 14:26:37;;;;;;;5.55;0.90;;;;;;;;;;5083236;28;20060;-72
2023/12/21 14:29:03;;;;;;;4.05;0.90;;;;;;;;;;5102965;28;20309;-73
2023/12/21 14:31:30;;;;;;;6.88;1.00;;;;;;;;;;5102371;28;20198;-70
2023/12/21 14:33:57;;;;;;;3.25;0.95;;;;;;;;;;5102034;28;20044;-70
2023/12/21 14:36:24;;;;;;;5.40;1.00;;;;;;;;;;5101439;28;20048;-70
2023/12/21 14:38:52;;;;;;;4.93;1.38;;;;;;;;;;5101521;28;20093;-73
2023/12/21 14:41:19;;;;;;;5.57;1.20;;;;;;;;;;5102002;28;20044;-73
2023/12/21 14:43:49;;;;;;;4.45;0.93;;;;;;;;;;5101632;28;20047;-72
2023/12/21 14:46:16;;;;;;;2.58;0.82;;;;;;;;;;5102132;28;20097;-73